OAL929 FSIA-FMMI
Flight info
| Callsign | OAL929 |
|---|---|
| Flight time | 2h 19m |
| Altitude | 38000 |
| Route | UNBED DCT OKLIM T113 NORSI UL441 GATLA |
| Aircraft | B738/M-V/N |
Departure
| Time | 2026-05-04 16:55 |
|---|---|
| Airport | Seychelles International Airport (FSIA) |
Arrival
| Time | 2026-05-04 19:14 |
|---|---|
| Airport | Ivato International Airport (FMMI) |
| Time | Latitude | Longitude | Altitude | Speed | Heading |
|---|---|---|---|---|---|
| 2026-05-04 16:37 | -4.67047 | 55.51267 | 18 ft | 0 kts | 215° |
| 2026-05-04 16:51 | -4.66944 | 55.51219 | 18 ft | 28 kts | 348° |
| 2026-05-04 16:51 | -4.66805 | 55.51115 | 18 ft | 21 kts | 323° |
| 2026-05-04 16:51 | -4.66706 | 55.51072 | 18 ft | 0 kts | 27° |
| 2026-05-04 16:52 | -4.66706 | 55.51073 | 18 ft | 0 kts | 27° |
| 2026-05-04 16:53 | -4.66690 | 55.51089 | 18 ft | 12 kts | 70° |
| 2026-05-04 16:54 | -4.66827 | 55.51318 | 18 ft | 80 kts | 123° |
| 2026-05-04 16:55 | -4.68510 | 55.55430 | 2411 ft | 182 kts | 72° |
| 2026-05-04 16:55 | -4.66587 | 55.56763 | 3591 ft | 185 kts | 358° |
| 2026-05-04 16:56 | -4.64605 | 55.55336 | 4819 ft | 188 kts | 289° |
| 2026-05-04 16:56 | -4.65930 | 55.51745 | 6580 ft | 196 kts | 236° |
| 2026-05-04 16:57 | -4.66701 | 55.50597 | 7216 ft | 200 kts | 236° |
| 2026-05-04 16:57 | -4.68287 | 55.48240 | 8370 ft | 210 kts | 236° |
| 2026-05-04 16:58 | -4.70840 | 55.44469 | 9995 ft | 226 kts | 236° |
| 2026-05-04 16:58 | -4.71736 | 55.43157 | 10541 ft | 229 kts | 238° |
| 2026-05-04 16:59 | -4.73561 | 55.40468 | 11744 ft | 240 kts | 237° |
| 2026-05-04 17:00 | -4.77674 | 55.34357 | 13961 ft | 289 kts | 237° |
| 2026-05-04 17:00 | -4.81316 | 55.28997 | 15014 ft | 336 kts | 236° |
| 2026-05-04 17:01 | -4.84090 | 55.24924 | 15506 ft | 369 kts | 236° |
| 2026-05-04 17:01 | -4.87086 | 55.20501 | 16149 ft | 392 kts | 236° |
| 2026-05-04 17:02 | -4.90194 | 55.15924 | 17209 ft | 400 kts | 235° |
| 2026-05-04 17:02 | -4.93555 | 55.11421 | 18211 ft | 408 kts | 225° |
| 2026-05-04 17:03 | -4.95745 | 55.09653 | 18666 ft | 412 kts | 212° |
| 2026-05-04 17:03 | -4.98322 | 55.08276 | 19137 ft | 416 kts | 205° |
| 2026-05-04 17:03 | -5.03632 | 55.05944 | 20031 ft | 423 kts | 204° |
| 2026-05-04 17:04 | -5.09102 | 55.03635 | 20881 ft | 430 kts | 203° |
| 2026-05-04 17:04 | -5.14654 | 55.01297 | 21657 ft | 436 kts | 203° |
| 2026-05-04 17:05 | -5.20284 | 54.98922 | 22417 ft | 441 kts | 202° |
| 2026-05-04 17:05 | -5.25983 | 54.96531 | 23113 ft | 447 kts | 203° |
| 2026-05-04 17:06 | -5.31745 | 54.94101 | 23739 ft | 453 kts | 203° |
| 2026-05-04 17:06 | -5.34662 | 54.92870 | 24043 ft | 455 kts | 202° |
| 2026-05-04 17:07 | -5.40519 | 54.90396 | 24663 ft | 459 kts | 202° |
| 2026-05-04 17:07 | -5.42511 | 54.89559 | 24831 ft | 461 kts | 202° |
| 2026-05-04 17:07 | -5.46434 | 54.87908 | 25221 ft | 462 kts | 202° |
| 2026-05-04 17:07 | -5.49409 | 54.86659 | 25501 ft | 464 kts | 202° |
| 2026-05-04 17:08 | -5.52395 | 54.85403 | 25770 ft | 467 kts | 202° |
| 2026-05-04 17:08 | -5.58414 | 54.82855 | 26225 ft | 472 kts | 203° |
| 2026-05-04 17:08 | -5.61444 | 54.81576 | 26482 ft | 473 kts | 203° |
| 2026-05-04 17:09 | -5.64485 | 54.80295 | 26725 ft | 475 kts | 202° |
| 2026-05-04 17:09 | -5.67531 | 54.78999 | 26967 ft | 476 kts | 203° |
| 2026-05-04 17:09 | -5.70592 | 54.77722 | 27269 ft | 475 kts | 201° |
| 2026-05-04 17:10 | -5.76729 | 54.75133 | 27613 ft | 482 kts | 201° |
| 2026-05-04 17:10 | -5.86042 | 54.71188 | 28245 ft | 486 kts | 202° |
| 2026-05-04 17:11 | -5.89166 | 54.69867 | 28406 ft | 488 kts | 203° |
| 2026-05-04 17:11 | -5.92309 | 54.68556 | 28597 ft | 490 kts | 202° |
| 2026-05-04 17:11 | -5.98606 | 54.65886 | 28964 ft | 492 kts | 202° |
| 2026-05-04 17:12 | -6.01761 | 54.64562 | 29241 ft | 491 kts | 203° |
| 2026-05-04 17:12 | -6.08040 | 54.61895 | 29803 ft | 490 kts | 202° |
| 2026-05-04 17:13 | -6.17444 | 54.57914 | 30618 ft | 488 kts | 202° |
| 2026-05-04 17:14 | -6.26808 | 54.53947 | 31471 ft | 486 kts | 202° |
| 2026-05-04 17:14 | -6.29923 | 54.52632 | 31767 ft | 485 kts | 202° |
| 2026-05-04 17:14 | -6.36154 | 54.49993 | 32340 ft | 484 kts | 201° |
| 2026-05-04 17:15 | -6.39238 | 54.48699 | 32654 ft | 483 kts | 201° |
| 2026-05-04 17:15 | -6.45458 | 54.46065 | 33222 ft | 482 kts | 202° |
| 2026-05-04 17:16 | -6.51617 | 54.43448 | 33808 ft | 480 kts | 200° |
| 2026-05-04 17:16 | -6.60843 | 54.39544 | 34707 ft | 478 kts | 200° |
| 2026-05-04 17:17 | -6.63895 | 54.38249 | 34993 ft | 477 kts | 202° |
| 2026-05-04 17:17 | -6.73029 | 54.34386 | 35822 ft | 474 kts | 201° |
| 2026-05-04 17:18 | -6.76072 | 54.33100 | 36090 ft | 473 kts | 201° |
| 2026-05-04 17:18 | -6.82113 | 54.30527 | 36607 ft | 472 kts | 202° |
| 2026-05-04 17:19 | -6.88187 | 54.27961 | 37078 ft | 470 kts | 202° |
| 2026-05-04 17:19 | -6.94191 | 54.25411 | 37519 ft | 469 kts | 200° |
| 2026-05-04 17:20 | -7.00200 | 54.22861 | 37935 ft | 468 kts | 201° |
| 2026-05-04 17:20 | -7.09233 | 54.19025 | 37941 ft | 468 kts | 200° |
| 2026-05-04 17:21 | -7.21199 | 54.13939 | 37951 ft | 468 kts | 200° |
| 2026-05-04 17:22 | -7.27163 | 54.11296 | 37940 ft | 469 kts | 204° |
| 2026-05-04 17:23 | -7.38631 | 54.04951 | 37946 ft | 470 kts | 208° |
| 2026-05-04 17:24 | -7.47206 | 54.00188 | 37936 ft | 470 kts | 207° |
| 2026-05-04 17:25 | -7.58700 | 53.93834 | 37936 ft | 471 kts | 206° |
| 2026-05-04 17:26 | -7.70226 | 53.87509 | 37947 ft | 471 kts | 206° |
| 2026-05-04 17:27 | -7.84676 | 53.79590 | 37938 ft | 472 kts | 206° |
| 2026-05-04 17:28 | -7.96192 | 53.73237 | 37976 ft | 472 kts | 208° |
| 2026-05-04 17:29 | -8.13445 | 53.63701 | 37950 ft | 471 kts | 206° |
| 2026-05-04 17:31 | -8.26892 | 53.56284 | 37947 ft | 472 kts | 206° |
| 2026-05-04 17:32 | -8.41262 | 53.48356 | 37947 ft | 471 kts | 208° |
| 2026-05-04 17:33 | -8.52786 | 53.41998 | 37952 ft | 471 kts | 206° |
| 2026-05-04 17:34 | -8.64274 | 53.35636 | 37952 ft | 471 kts | 207° |
| 2026-05-04 17:35 | -8.78497 | 53.27490 | 37953 ft | 470 kts | 205° |
| 2026-05-04 17:36 | -8.84321 | 53.24487 | 37956 ft | 469 kts | 207° |
| 2026-05-04 17:36 | -8.90058 | 53.21341 | 37954 ft | 470 kts | 208° |
| 2026-05-04 17:37 | -8.95717 | 53.18029 | 37951 ft | 470 kts | 208° |
| 2026-05-04 17:37 | -9.01411 | 53.14794 | 37957 ft | 469 kts | 205° |
| 2026-05-04 17:38 | -9.07203 | 53.11746 | 37955 ft | 469 kts | 205° |
| 2026-05-04 17:38 | -9.12963 | 53.08689 | 37952 ft | 469 kts | 206° |
| 2026-05-04 17:39 | -9.21511 | 53.03921 | 37953 ft | 469 kts | 207° |
| 2026-05-04 17:39 | -9.27242 | 53.00773 | 37956 ft | 468 kts | 207° |
| 2026-05-04 17:40 | -9.32968 | 52.97626 | 37955 ft | 468 kts | 206° |
| 2026-05-04 17:40 | -9.38665 | 52.94438 | 37959 ft | 468 kts | 208° |
| 2026-05-04 17:41 | -9.44355 | 52.91230 | 37958 ft | 468 kts | 207° |
| 2026-05-04 17:41 | -9.50031 | 52.88003 | 37957 ft | 468 kts | 207° |
| 2026-05-04 17:42 | -9.55722 | 52.84804 | 37961 ft | 468 kts | 207° |
| 2026-05-04 17:42 | -9.61514 | 52.81697 | 37954 ft | 468 kts | 207° |
| 2026-05-04 17:43 | -9.67242 | 52.78573 | 37962 ft | 468 kts | 210° |
| 2026-05-04 17:43 | -9.72921 | 52.75349 | 37960 ft | 468 kts | 207° |
| 2026-05-04 17:44 | -9.78593 | 52.72192 | 37965 ft | 468 kts | 208° |
| 2026-05-04 17:44 | -9.84271 | 52.68961 | 37969 ft | 468 kts | 210° |
| 2026-05-04 17:45 | -9.89923 | 52.65677 | 37967 ft | 468 kts | 206° |
| 2026-05-04 17:45 | -9.95705 | 52.62653 | 37966 ft | 468 kts | 209° |
| 2026-05-04 17:46 | -10.01398 | 52.59462 | 37969 ft | 467 kts | 208° |
| 2026-05-04 17:46 | -10.07077 | 52.56315 | 37967 ft | 461 kts | 208° |
| 2026-05-04 17:47 | -10.12646 | 52.53137 | 37970 ft | 459 kts | 208° |
| 2026-05-04 17:47 | -10.18213 | 52.49945 | 37967 ft | 460 kts | 208° |
| 2026-05-04 17:48 | -10.23834 | 52.46842 | 37969 ft | 460 kts | 206° |
| 2026-05-04 17:48 | -10.29541 | 52.43911 | 37965 ft | 460 kts | 207° |
| 2026-05-04 17:49 | -10.35173 | 52.40826 | 37968 ft | 460 kts | 209° |
| 2026-05-04 17:49 | -10.40742 | 52.37618 | 37967 ft | 460 kts | 210° |
| 2026-05-04 17:50 | -10.46215 | 52.34262 | 37969 ft | 460 kts | 210° |
| 2026-05-04 17:50 | -10.51825 | 52.31131 | 37970 ft | 460 kts | 209° |
| 2026-05-04 17:51 | -10.57441 | 52.28010 | 37966 ft | 460 kts | 210° |
| 2026-05-04 17:51 | -10.63045 | 52.24861 | 37974 ft | 460 kts | 209° |
| 2026-05-04 17:52 | -10.68696 | 52.21805 | 37965 ft | 460 kts | 207° |
| 2026-05-04 17:52 | -10.74317 | 52.18698 | 37970 ft | 460 kts | 208° |
| 2026-05-04 17:53 | -10.80036 | 52.15766 | 37971 ft | 460 kts | 204° |
| 2026-05-04 17:53 | -10.85717 | 52.12771 | 37969 ft | 460 kts | 210° |
| 2026-05-04 17:54 | -10.91158 | 52.09341 | 37969 ft | 460 kts | 211° |
| 2026-05-04 17:54 | -10.96513 | 52.05853 | 37972 ft | 460 kts | 211° |
| 2026-05-04 17:55 | -11.02108 | 52.02680 | 37968 ft | 460 kts | 206° |
| 2026-05-04 17:55 | -11.07904 | 51.99908 | 37970 ft | 461 kts | 205° |
| 2026-05-04 17:56 | -11.13611 | 51.96917 | 37973 ft | 462 kts | 210° |
| 2026-05-04 17:56 | -11.19193 | 51.93668 | 37971 ft | 462 kts | 210° |
| 2026-05-04 17:57 | -11.24732 | 51.90343 | 37969 ft | 461 kts | 211° |
| 2026-05-04 17:57 | -11.30324 | 51.87122 | 37968 ft | 462 kts | 208° |
| 2026-05-04 17:58 | -11.36008 | 51.84072 | 37968 ft | 462 kts | 208° |
| 2026-05-04 17:58 | -11.41610 | 51.80869 | 37969 ft | 462 kts | 210° |
| 2026-05-04 17:59 | -11.47140 | 51.77540 | 37968 ft | 462 kts | 209° |
| 2026-05-04 18:00 | -11.55578 | 51.72802 | 37969 ft | 462 kts | 206° |
| 2026-05-04 18:00 | -11.61375 | 51.69894 | 37973 ft | 461 kts | 211° |
| 2026-05-04 18:01 | -11.66900 | 51.66644 | 37967 ft | 461 kts | 211° |
| 2026-05-04 18:01 | -11.72508 | 51.63387 | 37972 ft | 461 kts | 210° |
| 2026-05-04 18:02 | -11.80843 | 51.58537 | 37971 ft | 462 kts | 208° |
| 2026-05-04 18:02 | -11.86564 | 51.55471 | 37969 ft | 462 kts | 207° |
| 2026-05-04 18:03 | -11.92309 | 51.52589 | 37968 ft | 461 kts | 209° |
| 2026-05-04 18:03 | -11.97828 | 51.49223 | 37966 ft | 461 kts | 212° |
| 2026-05-04 18:04 | -12.03314 | 51.45812 | 37968 ft | 462 kts | 210° |
| 2026-05-04 18:05 | -12.11788 | 51.41157 | 37961 ft | 462 kts | 207° |
| 2026-05-04 18:05 | -12.17503 | 51.38094 | 37970 ft | 462 kts | 209° |
| 2026-05-04 18:06 | -12.25851 | 51.33148 | 37969 ft | 463 kts | 209° |
| 2026-05-04 18:06 | -12.31454 | 51.29894 | 37965 ft | 463 kts | 209° |
| 2026-05-04 18:07 | -12.37031 | 51.26626 | 37967 ft | 463 kts | 208° |
| 2026-05-04 18:07 | -12.42729 | 51.23544 | 37966 ft | 463 kts | 207° |
| 2026-05-04 18:08 | -12.48394 | 51.20369 | 37954 ft | 464 kts | 208° |
| 2026-05-04 18:08 | -12.54070 | 51.17261 | 37966 ft | 464 kts | 208° |
| 2026-05-04 18:09 | -12.65405 | 51.10973 | 37967 ft | 463 kts | 217° |
| 2026-05-04 18:10 | -12.70703 | 51.07246 | 37967 ft | 463 kts | 211° |
| 2026-05-04 18:10 | -12.75462 | 51.04613 | 37967 ft | 464 kts | 207° |
| 2026-05-04 18:11 | -12.81247 | 51.01667 | 37966 ft | 464 kts | 207° |
| 2026-05-04 18:11 | -12.86993 | 50.98679 | 37965 ft | 464 kts | 207° |
| 2026-05-04 18:12 | -12.92641 | 50.95490 | 37965 ft | 463 kts | 211° |
| 2026-05-04 18:12 | -12.95226 | 50.93515 | 37958 ft | 462 kts | 222° |
| 2026-05-04 18:12 | -12.97612 | 50.91326 | 37964 ft | 463 kts | 218° |
| 2026-05-04 18:13 | -13.03146 | 50.87925 | 37961 ft | 464 kts | 207° |
| 2026-05-04 18:14 | -13.11861 | 50.83643 | 37973 ft | 464 kts | 202° |
| 2026-05-04 18:14 | -13.17867 | 50.81259 | 37964 ft | 463 kts | 201° |
| 2026-05-04 18:15 | -13.23517 | 50.78045 | 37967 ft | 463 kts | 215° |
| 2026-05-04 18:15 | -13.28962 | 50.74564 | 37964 ft | 463 kts | 211° |
| 2026-05-04 18:16 | -13.34586 | 50.71256 | 37972 ft | 463 kts | 209° |
| 2026-05-04 18:16 | -13.40289 | 50.68235 | 37968 ft | 463 kts | 207° |
| 2026-05-04 18:17 | -13.48678 | 50.63299 | 37984 ft | 463 kts | 211° |
| 2026-05-04 18:18 | -13.57074 | 50.58385 | 37987 ft | 463 kts | 208° |
| 2026-05-04 18:18 | -13.62717 | 50.55188 | 37982 ft | 463 kts | 209° |
| 2026-05-04 18:19 | -13.71324 | 50.50672 | 37983 ft | 463 kts | 211° |
| 2026-05-04 18:19 | -13.76857 | 50.47281 | 37988 ft | 463 kts | 211° |
| 2026-05-04 18:20 | -13.82410 | 50.43928 | 37990 ft | 463 kts | 210° |
| 2026-05-04 18:20 | -13.88056 | 50.40732 | 37988 ft | 463 kts | 208° |
| 2026-05-04 18:21 | -13.93692 | 50.37529 | 37990 ft | 463 kts | 210° |
| 2026-05-04 18:21 | -13.99239 | 50.34231 | 37990 ft | 463 kts | 210° |
| 2026-05-04 18:22 | -14.04873 | 50.31032 | 37994 ft | 460 kts | 211° |
| 2026-05-04 18:22 | -14.10417 | 50.27804 | 37997 ft | 456 kts | 211° |
| 2026-05-04 18:23 | -14.15991 | 50.24674 | 37996 ft | 456 kts | 212° |
| 2026-05-04 18:23 | -14.21494 | 50.21408 | 38001 ft | 455 kts | 211° |
| 2026-05-04 18:24 | -14.26983 | 50.18222 | 37995 ft | 451 kts | 213° |
| 2026-05-04 18:24 | -14.32454 | 50.15051 | 38000 ft | 452 kts | 210° |
| 2026-05-04 18:25 | -14.38105 | 50.12188 | 37999 ft | 453 kts | 205° |
| 2026-05-04 18:25 | -14.43694 | 50.09202 | 38000 ft | 452 kts | 211° |
| 2026-05-04 18:26 | -14.49130 | 50.05948 | 38002 ft | 452 kts | 211° |
| 2026-05-04 18:26 | -14.54576 | 50.02714 | 38001 ft | 452 kts | 210° |
| 2026-05-04 18:27 | -14.60093 | 49.99593 | 38003 ft | 452 kts | 208° |
| 2026-05-04 18:27 | -14.65648 | 49.96570 | 38006 ft | 451 kts | 211° |
| 2026-05-04 18:28 | -14.71138 | 49.93422 | 38007 ft | 451 kts | 211° |
| 2026-05-04 18:28 | -14.76672 | 49.90355 | 38009 ft | 451 kts | 210° |
| 2026-05-04 18:29 | -14.82186 | 49.87253 | 38005 ft | 451 kts | 210° |
| 2026-05-04 18:29 | -14.87663 | 49.84109 | 38009 ft | 450 kts | 212° |
| 2026-05-04 18:30 | -14.95908 | 49.79438 | 38009 ft | 451 kts | 210° |
| 2026-05-04 18:31 | -15.01444 | 49.76401 | 38013 ft | 451 kts | 210° |
| 2026-05-04 18:31 | -15.07000 | 49.73406 | 38016 ft | 450 kts | 210° |
| 2026-05-04 18:32 | -15.12464 | 49.70238 | 38015 ft | 449 kts | 213° |
| 2026-05-04 18:32 | -15.17773 | 49.66841 | 38021 ft | 448 kts | 215° |
| 2026-05-04 18:33 | -15.23001 | 49.63393 | 38019 ft | 449 kts | 212° |
| 2026-05-04 18:33 | -15.28446 | 49.60225 | 38025 ft | 449 kts | 210° |
| 2026-05-04 18:34 | -15.33968 | 49.57197 | 38018 ft | 449 kts | 210° |
| 2026-05-04 18:34 | -15.39443 | 49.54083 | 38033 ft | 449 kts | 211° |
| 2026-05-04 18:35 | -15.44928 | 49.50986 | 38032 ft | 448 kts | 211° |
| 2026-05-04 18:35 | -15.50313 | 49.47729 | 38033 ft | 448 kts | 212° |
| 2026-05-04 18:36 | -15.55602 | 49.44322 | 38035 ft | 448 kts | 212° |
| 2026-05-04 18:36 | -15.61018 | 49.41123 | 38034 ft | 449 kts | 208° |
| 2026-05-04 18:37 | -15.66526 | 49.38077 | 38039 ft | 448 kts | 210° |
| 2026-05-04 18:37 | -15.71995 | 49.34975 | 38053 ft | 447 kts | 212° |
| 2026-05-04 18:38 | -15.77364 | 49.31712 | 38076 ft | 447 kts | 213° |
| 2026-05-04 18:38 | -15.82746 | 49.28455 | 38090 ft | 448 kts | 211° |
| 2026-05-04 18:39 | -15.88207 | 49.25343 | 38087 ft | 448 kts | 211° |
| 2026-05-04 18:39 | -15.93644 | 49.22184 | 38083 ft | 447 kts | 213° |
| 2026-05-04 18:40 | -15.98982 | 49.18868 | 38085 ft | 448 kts | 212° |
| 2026-05-04 18:40 | -16.04405 | 49.15694 | 38093 ft | 447 kts | 212° |
| 2026-05-04 18:41 | -16.09838 | 49.12540 | 38097 ft | 447 kts | 212° |
| 2026-05-04 18:41 | -16.15238 | 49.09322 | 38106 ft | 447 kts | 212° |
| 2026-05-04 18:42 | -16.20595 | 49.06051 | 38104 ft | 447 kts | 211° |
| 2026-05-04 18:42 | -16.26046 | 49.02932 | 38109 ft | 447 kts | 210° |
| 2026-05-04 18:43 | -16.31514 | 48.99847 | 38111 ft | 448 kts | 208° |
| 2026-05-04 18:43 | -16.37011 | 48.96808 | 38111 ft | 447 kts | 211° |
| 2026-05-04 18:44 | -16.42415 | 48.93608 | 38112 ft | 447 kts | 212° |
| 2026-05-04 18:44 | -16.47787 | 48.90368 | 38119 ft | 447 kts | 211° |
| 2026-05-04 18:45 | -16.53173 | 48.87133 | 38115 ft | 447 kts | 211° |
| 2026-05-04 18:45 | -16.58540 | 48.83885 | 38121 ft | 446 kts | 213° |
| 2026-05-04 18:46 | -16.63841 | 48.80520 | 38121 ft | 445 kts | 217° |
| 2026-05-04 18:46 | -16.68938 | 48.76842 | 38117 ft | 445 kts | 217° |
| 2026-05-04 18:47 | -16.74000 | 48.73127 | 38125 ft | 445 kts | 217° |
| 2026-05-04 18:47 | -16.79153 | 48.69526 | 38121 ft | 445 kts | 217° |
| 2026-05-04 18:48 | -16.84115 | 48.65732 | 38128 ft | 445 kts | 218° |
| 2026-05-04 18:48 | -16.89145 | 48.61971 | 38129 ft | 445 kts | 217° |
| 2026-05-04 18:49 | -16.94216 | 48.58255 | 38129 ft | 445 kts | 216° |
| 2026-05-04 18:49 | -16.99268 | 48.54523 | 38132 ft | 445 kts | 217° |
| 2026-05-04 18:50 | -17.04362 | 48.50846 | 38134 ft | 445 kts | 217° |
| 2026-05-04 18:50 | -17.09398 | 48.47082 | 38133 ft | 444 kts | 218° |
| 2026-05-04 18:51 | -17.14430 | 48.43326 | 38140 ft | 445 kts | 217° |
| 2026-05-04 18:51 | -17.19502 | 48.39621 | 38144 ft | 445 kts | 215° |
| 2026-05-04 18:52 | -17.24630 | 48.35998 | 38141 ft | 444 kts | 218° |
| 2026-05-04 18:52 | -17.29616 | 48.32184 | 38147 ft | 444 kts | 219° |
| 2026-05-04 18:53 | -17.34661 | 48.28467 | 38145 ft | 442 kts | 222° |
| 2026-05-04 18:53 | -17.39173 | 48.24100 | 38152 ft | 442 kts | 221° |
| 2026-05-04 18:54 | -17.43199 | 48.20786 | 38153 ft | 444 kts | 217° |
| 2026-05-04 18:54 | -17.48429 | 48.17334 | 38154 ft | 445 kts | 212° |
| 2026-05-04 18:55 | -17.53778 | 48.14073 | 38158 ft | 445 kts | 213° |
| 2026-05-04 18:55 | -17.58910 | 48.10491 | 37205 ft | 441 kts | 217° |
| 2026-05-04 18:55 | -17.61376 | 48.08578 | 36502 ft | 441 kts | 219° |
| 2026-05-04 18:56 | -17.63829 | 48.06637 | 35773 ft | 442 kts | 217° |
| 2026-05-04 18:56 | -17.66314 | 48.04737 | 35033 ft | 443 kts | 218° |
| 2026-05-04 18:56 | -17.68820 | 48.02842 | 34277 ft | 444 kts | 217° |
| 2026-05-04 18:56 | -17.71351 | 48.00977 | 33501 ft | 445 kts | 217° |
| 2026-05-04 18:57 | -17.73892 | 47.99106 | 32711 ft | 447 kts | 217° |
| 2026-05-04 18:57 | -17.76438 | 47.97234 | 31908 ft | 447 kts | 217° |
| 2026-05-04 18:57 | -17.78977 | 47.95350 | 31087 ft | 447 kts | 217° |
| 2026-05-04 18:57 | -17.81515 | 47.93462 | 30359 ft | 445 kts | 216° |
| 2026-05-04 18:58 | -17.84009 | 47.91569 | 29739 ft | 440 kts | 216° |
| 2026-05-04 18:58 | -17.86480 | 47.89713 | 29109 ft | 435 kts | 217° |
| 2026-05-04 18:58 | -17.88921 | 47.87869 | 28486 ft | 430 kts | 217° |
| 2026-05-04 18:58 | -17.91331 | 47.86042 | 27871 ft | 426 kts | 216° |
| 2026-05-04 18:59 | -17.93725 | 47.84232 | 27258 ft | 422 kts | 217° |
| 2026-05-04 18:59 | -17.96102 | 47.82441 | 26647 ft | 419 kts | 216° |
| 2026-05-04 18:59 | -17.98466 | 47.80677 | 26038 ft | 416 kts | 216° |
| 2026-05-04 18:59 | -18.00818 | 47.78924 | 25433 ft | 413 kts | 216° |
| 2026-05-04 19:00 | -18.03155 | 47.77181 | 24827 ft | 411 kts | 216° |
| 2026-05-04 19:00 | -18.05478 | 47.75452 | 24223 ft | 409 kts | 215° |
| 2026-05-04 19:00 | -18.07801 | 47.73734 | 23621 ft | 407 kts | 216° |
| 2026-05-04 19:00 | -18.10104 | 47.72016 | 23022 ft | 405 kts | 216° |
| 2026-05-04 19:01 | -18.12390 | 47.70300 | 22426 ft | 403 kts | 215° |
| 2026-05-04 19:01 | -18.14656 | 47.68577 | 21828 ft | 401 kts | 216° |
| 2026-05-04 19:01 | -18.16902 | 47.66857 | 21237 ft | 398 kts | 216° |
| 2026-05-04 19:01 | -18.19125 | 47.65140 | 20651 ft | 395 kts | 216° |
| 2026-05-04 19:02 | -18.21339 | 47.63443 | 20065 ft | 392 kts | 215° |
| 2026-05-04 19:02 | -18.23558 | 47.61793 | 19483 ft | 390 kts | 214° |
| 2026-05-04 19:02 | -18.24405 | 47.61164 | 19262 ft | 389 kts | 214° |
| 2026-05-04 19:02 | -18.26321 | 47.59764 | 18762 ft | 387 kts | 214° |
| 2026-05-04 19:03 | -18.28522 | 47.58145 | 18182 ft | 384 kts | 214° |
| 2026-05-04 19:03 | -18.30701 | 47.56540 | 17626 ft | 381 kts | 214° |
| 2026-05-04 19:03 | -18.32855 | 47.54906 | 16837 ft | 384 kts | 214° |
| 2026-05-04 19:03 | -18.35014 | 47.53266 | 16220 ft | 382 kts | 214° |
| 2026-05-04 19:04 | -18.37150 | 47.51629 | 15637 ft | 378 kts | 214° |
| 2026-05-04 19:04 | -18.39276 | 47.50015 | 15061 ft | 375 kts | 214° |
| 2026-05-04 19:04 | -18.41368 | 47.48405 | 14491 ft | 371 kts | 214° |
| 2026-05-04 19:04 | -18.43445 | 47.46814 | 13918 ft | 367 kts | 214° |
| 2026-05-04 19:05 | -18.45526 | 47.45276 | 13354 ft | 364 kts | 214° |
| 2026-05-04 19:05 | -18.47594 | 47.43755 | 12790 ft | 361 kts | 213° |
| 2026-05-04 19:05 | -18.49638 | 47.42234 | 12222 ft | 358 kts | 214° |
| 2026-05-04 19:05 | -18.51652 | 47.40710 | 11651 ft | 352 kts | 214° |
| 2026-05-04 19:06 | -18.53612 | 47.39225 | 11094 ft | 341 kts | 214° |
| 2026-05-04 19:06 | -18.55494 | 47.37803 | 10833 ft | 323 kts | 213° |
| 2026-05-04 19:06 | -18.57260 | 47.36469 | 10689 ft | 302 kts | 213° |
| 2026-05-04 19:06 | -18.58917 | 47.35218 | 10531 ft | 284 kts | 213° |
| 2026-05-04 19:07 | -18.60475 | 47.34042 | 10381 ft | 268 kts | 213° |
| 2026-05-04 19:07 | -18.61994 | 47.32893 | 10246 ft | 272 kts | 213° |
| 2026-05-04 19:07 | -18.63564 | 47.31707 | 10100 ft | 282 kts | 213° |
| 2026-05-04 19:07 | -18.65184 | 47.30477 | 9838 ft | 289 kts | 213° |
| 2026-05-04 19:08 | -18.66826 | 47.29239 | 9446 ft | 291 kts | 214° |
| 2026-05-04 19:08 | -18.68449 | 47.28004 | 9041 ft | 284 kts | 214° |
| 2026-05-04 19:08 | -18.70035 | 47.26807 | 8654 ft | 277 kts | 213° |
| 2026-05-04 19:08 | -18.71578 | 47.25634 | 8279 ft | 270 kts | 213° |
| 2026-05-04 19:09 | -18.73159 | 47.24640 | 7924 ft | 259 kts | 195° |
| 2026-05-04 19:09 | -18.74862 | 47.24632 | 7777 ft | 237 kts | 159° |
| 2026-05-04 19:09 | -18.76120 | 47.25615 | 7572 ft | 224 kts | 124° |
| 2026-05-04 19:09 | -18.76617 | 47.27114 | 7359 ft | 209 kts | 101° |
| 2026-05-04 19:10 | -18.76828 | 47.28558 | 7233 ft | 189 kts | 99° |
| 2026-05-04 19:10 | -18.77018 | 47.29892 | 7101 ft | 179 kts | 99° |
| 2026-05-04 19:10 | -18.77199 | 47.31142 | 7065 ft | 168 kts | 99° |
| 2026-05-04 19:10 | -18.77384 | 47.32390 | 6864 ft | 173 kts | 99° |
| 2026-05-04 19:11 | -18.77563 | 47.33601 | 6588 ft | 162 kts | 99° |
| 2026-05-04 19:11 | -18.77733 | 47.34742 | 6366 ft | 154 kts | 100° |
| 2026-05-04 19:11 | -18.77900 | 47.35846 | 6177 ft | 152 kts | 101° |
| 2026-05-04 19:11 | -18.78065 | 47.36953 | 5971 ft | 156 kts | 99° |
| 2026-05-04 19:12 | -18.78235 | 47.38099 | 5766 ft | 156 kts | 99° |
| 2026-05-04 19:12 | -18.78566 | 47.40330 | 5363 ft | 154 kts | 98° |
| 2026-05-04 19:12 | -18.78727 | 47.41446 | 5161 ft | 154 kts | 97° |
| 2026-05-04 19:13 | -18.78892 | 47.42553 | 4993 ft | 149 kts | 98° |
| 2026-05-04 19:13 | -18.79036 | 47.43644 | 4956 ft | 153 kts | 97° |
| 2026-05-04 19:13 | -18.79199 | 47.44776 | 4797 ft | 155 kts | 101° |
| 2026-05-04 19:13 | -18.79381 | 47.45865 | 4447 ft | 148 kts | 99° |
| 2026-05-04 19:14 | -18.79540 | 47.46885 | 4222 ft | 127 kts | 99° |
| 2026-05-04 19:14 | -18.79642 | 47.47509 | 4206 ft | 16 kts | 89° |
| 2026-05-04 19:14 | -18.79689 | 47.47538 | 4206 ft | 18 kts | 186° |
| 2026-05-04 19:14 | -18.79733 | 47.47534 | 4206 ft | 0 kts | 188° |